Peniel Crossroads, South Carolina
Current Conditions -  °F | °C
As of 10:53 PM on Friday 24 Oct 2014 (Local Time) from KFLO Reporting Station
Clear Clear  
Wind Chill: 55°   Ceiling: Unl
Heat Index: 55°   Visibility: 7mi
Dew Point: 50°   Wind: 3mph
Humidity: 83%   Direction: 340°NNW
Pressure: 30.01"   Gusts: NA
Location:  34.07°N, 79.933°W
Report Text: KFLO 250253Z AUTO 34003KT 7SM CLR 13/10 A3001 RMK AO2 SLP161 T01280100 51011
Loading
Personal Weather Stations






























Interactive Weather Map
Tropical Storm Tracking
New forecast layout! Learn more

10-Day Weather Forecast

Advertisements
Track Severe Weather on mobile